Terminal Aerodrome Forecast
Issued by NWS Cleveland, OH

Home | Current Version | Previous Version | Graphics & Text | Print | Product List | Glossary On
Versions: 1 2 3 4 5 6 7 8 9 10 11 12 13 14 15 16 17 18 19 20 21
000
FTUS41 KCLE 181532 AAB
TAFTOL
TAF AMD
KTOL 181532Z 1816/1912 17012G18KT 1 1/2SM -SHRA BR BKN003 OVC010
      WS020/20040KT
      TEMPO 1816/1818 3SM -SHRA SCT003
     FM181800 17012G18KT 2SM -SHRA VCTS OVC003CB
      TEMPO 1818/1822 VRB30G40KT 3/4SM -TSRA
     FM182200 32020G35KT 2SM SHRA BR OVC003
     FM190400 32020G35KT 5SM -SHSN OVC015=

USA.gov is the U.S. government's official web portal to all federal, state and local government web resources and services.